sensor_id;sensor_type;location;lat;lon;timestamp;P1;durP1;ratioP1;P2;durP2;ratioP2
74650;SDS011;63169;46.042;14.592;2023-12-07T00:01:33;14.50;;;7.15;;
74650;SDS011;63169;46.042;14.592;2023-12-07T00:03:59;17.67;;;8.65;;
74650;SDS011;63169;46.042;14.592;2023-12-07T00:06:25;14.88;;;8.25;;
74650;SDS011;63169;46.042;14.592;2023-12-07T00:08:51;19.13;;;8.63;;
74650;SDS011;63169;46.042;14.592;2023-12-07T00:11:17;15.45;;;11.07;;
74650;SDS011;63169;46.042;14.592;2023-12-07T00:13:42;18.45;;;7.65;;
74650;SDS011;63169;46.042;14.592;2023-12-07T00:16:08;11.85;;;6.57;;
74650;SDS011;63169;46.042;14.592;2023-12-07T00:18:33;12.80;;;7.65;;
74650;SDS011;63169;46.042;14.592;2023-12-07T00:20:59;20.08;;;11.88;;
74650;SDS011;63169;46.042;14.592;2023-12-07T00:23:24;13.32;;;7.28;;
74650;SDS011;63169;46.042;14.592;2023-12-07T00:25:49;13.30;;;9.60;;
74650;SDS011;63169;46.042;14.592;2023-12-07T00:28:15;13.65;;;7.72;;
74650;SDS011;63169;46.042;14.592;2023-12-07T00:30:41;14.80;;;7.30;;
74650;SDS011;63169;46.042;14.592;2023-12-07T00:33:07;15.27;;;10.15;;
74650;SDS011;63169;46.042;14.592;2023-12-07T00:35:34;15.00;;;8.15;;
74650;SDS011;63169;46.042;14.592;2023-12-07T00:37:59;21.17;;;11.32;;
74650;SDS011;63169;46.042;14.592;2023-12-07T00:40:25;12.63;;;10.90;;
74650;SDS011;63169;46.042;14.592;2023-12-07T00:42:50;16.77;;;10.65;;
74650;SDS011;63169;46.042;14.592;2023-12-07T00:45:16;26.70;;;9.55;;
74650;SDS011;63169;46.042;14.592;2023-12-07T00:47:41;21.25;;;10.65;;
74650;SDS011;63169;46.042;14.592;2023-12-07T00:50:07;19.10;;;12.65;;
74650;SDS011;63169;46.042;14.592;2023-12-07T00:52:33;18.48;;;8.23;;
74650;SDS011;63169;46.042;14.592;2023-12-07T00:54:58;20.45;;;12.73;;
74650;SDS011;63169;46.042;14.592;2023-12-07T00:57:24;15.70;;;7.32;;
74650;SDS011;63169;46.042;14.592;2023-12-07T00:59:49;21.20;;;11.55;;
74650;SDS011;63169;46.042;14.592;2023-12-07T01:02:15;16.17;;;8.45;;
74650;SDS011;63169;46.042;14.592;2023-12-07T01:04:40;12.13;;;6.50;;
74650;SDS011;63169;46.042;14.592;2023-12-07T01:07:05;18.52;;;7.97;;
74650;SDS011;63169;46.042;14.592;2023-12-07T01:09:31;16.80;;;8.27;;
74650;SDS011;63169;46.042;14.592;2023-12-07T01:11:56;18.55;;;8.52;;
74650;SDS011;63169;46.042;14.592;2023-12-07T01:14:23;15.02;;;7.63;;
74650;SDS011;63169;46.042;14.592;2023-12-07T01:16:49;20.42;;;9.43;;
74650;SDS011;63169;46.042;14.592;2023-12-07T01:19:14;22.35;;;9.80;;
74650;SDS011;63169;46.042;14.592;2023-12-07T01:21:40;16.38;;;8.40;;
74650;SDS011;63169;46.042;14.592;2023-12-07T01:24:06;19.17;;;9.13;;
74650;SDS011;63169;46.042;14.592;2023-12-07T01:26:32;22.77;;;8.27;;
74650;SDS011;63169;46.042;14.592;2023-12-07T01:28:58;18.02;;;8.38;;
74650;SDS011;63169;46.042;14.592;2023-12-07T01:31:23;18.20;;;8.82;;
74650;SDS011;63169;46.042;14.592;2023-12-07T01:33:49;19.48;;;11.90;;
74650;SDS011;63169;46.042;14.592;2023-12-07T01:36:14;15.73;;;8.05;;
74650;SDS011;63169;46.042;14.592;2023-12-07T01:38:39;20.52;;;9.15;;
74650;SDS011;63169;46.042;14.592;2023-12-07T01:41:05;18.60;;;7.68;;
74650;SDS011;63169;46.042;14.592;2023-12-07T01:43:30;15.15;;;8.23;;
74650;SDS011;63169;46.042;14.592;2023-12-07T01:45:56;21.42;;;13.35;;
74650;SDS011;63169;46.042;14.592;2023-12-07T01:48:22;18.95;;;7.82;;
74650;SDS011;63169;46.042;14.592;2023-12-07T01:50:49;17.55;;;10.38;;
74650;SDS011;63169;46.042;14.592;2023-12-07T01:53:15;20.92;;;9.30;;
74650;SDS011;63169;46.042;14.592;2023-12-07T01:55:41;17.05;;;9.10;;
74650;SDS011;63169;46.042;14.592;2023-12-07T01:58:07;18.23;;;11.65;;
74650;SDS011;63169;46.042;14.592;2023-12-07T02:00:33;17.92;;;12.45;;
74650;SDS011;63169;46.042;14.592;2023-12-07T02:02:59;15.38;;;7.57;;
74650;SDS011;63169;46.042;14.592;2023-12-07T02:05:26;21.92;;;9.75;;
74650;SDS011;63169;46.042;14.592;2023-12-07T02:07:51;19.75;;;11.27;;
74650;SDS011;63169;46.042;14.592;2023-12-07T02:10:17;18.48;;;11.65;;
74650;SDS011;63169;46.042;14.592;2023-12-07T02:12:44;16.73;;;7.20;;
74650;SDS011;63169;46.042;14.592;2023-12-07T02:15:09;16.55;;;7.88;;
74650;SDS011;63169;46.042;14.592;2023-12-07T02:20:28;14.70;;;7.85;;
74650;SDS011;63169;46.042;14.592;2023-12-07T02:22:55;14.63;;;6.95;;
74650;SDS011;63169;46.042;14.592;2023-12-07T02:28:32;15.15;;;9.80;;
74650;SDS011;63169;46.042;14.592;2023-12-07T02:30:57;13.00;;;7.65;;
74650;SDS011;63169;46.042;14.592;2023-12-07T02:33:22;18.85;;;10.45;;
74650;SDS011;63169;46.042;14.592;2023-12-07T02:35:48;16.52;;;9.80;;
74650;SDS011;63169;46.042;14.592;2023-12-07T02:38:14;16.50;;;10.43;;
74650;SDS011;63169;46.042;14.592;2023-12-07T02:40:40;18.92;;;10.60;;
74650;SDS011;63169;46.042;14.592;2023-12-07T02:43:06;22.40;;;9.23;;
74650;SDS011;63169;46.042;14.592;2023-12-07T02:45:32;18.63;;;9.32;;
74650;SDS011;63169;46.042;14.592;2023-12-07T02:47:58;19.45;;;12.75;;
74650;SDS011;63169;46.042;14.592;2023-12-07T02:50:23;19.15;;;7.40;;
74650;SDS011;63169;46.042;14.592;2023-12-07T02:52:49;18.80;;;10.13;;
74650;SDS011;63169;46.042;14.592;2023-12-07T02:55:15;15.18;;;7.63;;
74650;SDS011;63169;46.042;14.592;2023-12-07T02:57:40;21.17;;;9.95;;
74650;SDS011;63169;46.042;14.592;2023-12-07T03:00:06;14.57;;;7.88;;
74650;SDS011;63169;46.042;14.592;2023-12-07T03:02:35;13.85;;;8.07;;
74650;SDS011;63169;46.042;14.592;2023-12-07T03:05:01;16.90;;;8.18;;
74650;SDS011;63169;46.042;14.592;2023-12-07T03:07:27;18.58;;;8.55;;
74650;SDS011;63169;46.042;14.592;2023-12-07T03:09:52;17.48;;;8.55;;
74650;SDS011;63169;46.042;14.592;2023-12-07T03:12:18;18.52;;;8.10;;
74650;SDS011;63169;46.042;14.592;2023-12-07T03:14:43;19.27;;;8.50;;
74650;SDS011;63169;46.042;14.592;2023-12-07T03:17:09;13.40;;;6.75;;
74650;SDS011;63169;46.042;14.592;2023-12-07T03:19:38;16.52;;;7.55;;
74650;SDS011;63169;46.042;14.592;2023-12-07T03:22:03;13.77;;;6.60;;
74650;SDS011;63169;46.042;14.592;2023-12-07T03:24:31;16.48;;;6.82;;
74650;SDS011;63169;46.042;14.592;2023-12-07T03:26:58;15.23;;;8.82;;
74650;SDS011;63169;46.042;14.592;2023-12-07T03:29:24;16.95;;;9.82;;
74650;SDS011;63169;46.042;14.592;2023-12-07T03:31:49;17.50;;;9.32;;
74650;SDS011;63169;46.042;14.592;2023-12-07T03:34:14;25.13;;;11.68;;
74650;SDS011;63169;46.042;14.592;2023-12-07T03:36:41;18.52;;;11.30;;
74650;SDS011;63169;46.042;14.592;2023-12-07T03:39:16;19.30;;;9.48;;
74650;SDS011;63169;46.042;14.592;2023-12-07T03:41:47;18.77;;;11.88;;
74650;SDS011;63169;46.042;14.592;2023-12-07T03:44:13;17.77;;;11.07;;
74650;SDS011;63169;46.042;14.592;2023-12-07T03:46:38;15.40;;;11.18;;
74650;SDS011;63169;46.042;14.592;2023-12-07T03:49:04;17.95;;;10.55;;
74650;SDS011;63169;46.042;14.592;2023-12-07T03:51:30;18.38;;;11.95;;
74650;SDS011;63169;46.042;14.592;2023-12-07T03:53:55;17.05;;;8.35;;
74650;SDS011;63169;46.042;14.592;2023-12-07T03:56:28;19.30;;;8.25;;
74650;SDS011;63169;46.042;14.592;2023-12-07T03:58:54;15.13;;;10.20;;
74650;SDS011;63169;46.042;14.592;2023-12-07T04:01:27;21.52;;;12.30;;
74650;SDS011;63169;46.042;14.592;2023-12-07T04:03:53;19.95;;;11.15;;
74650;SDS011;63169;46.042;14.592;2023-12-07T04:06:20;17.63;;;10.55;;
74650;SDS011;63169;46.042;14.592;2023-12-07T04:08:46;19.02;;;9.23;;
74650;SDS011;63169;46.042;14.592;2023-12-07T04:11:12;17.25;;;11.80;;
74650;SDS011;63169;46.042;14.592;2023-12-07T04:13:38;19.27;;;8.43;;
74650;SDS011;63169;46.042;14.592;2023-12-07T04:16:03;18.33;;;10.32;;
74650;SDS011;63169;46.042;14.592;2023-12-07T04:18:29;17.85;;;9.68;;
74650;SDS011;63169;46.042;14.592;2023-12-07T04:20:55;19.73;;;12.93;;
74650;SDS011;63169;46.042;14.592;2023-12-07T04:23:20;16.58;;;8.20;;
74650;SDS011;63169;46.042;14.592;2023-12-07T04:25:46;17.92;;;10.00;;
74650;SDS011;63169;46.042;14.592;2023-12-07T04:28:11;18.08;;;7.35;;
74650;SDS011;63169;46.042;14.592;2023-12-07T04:30:37;17.73;;;7.63;;
74650;SDS011;63169;46.042;14.592;2023-12-07T04:33:02;15.00;;;11.27;;
74650;SDS011;63169;46.042;14.592;2023-12-07T04:35:28;21.80;;;11.40;;
74650;SDS011;63169;46.042;14.592;2023-12-07T04:37:54;20.25;;;11.55;;
74650;SDS011;63169;46.042;14.592;2023-12-07T04:40:19;17.75;;;10.95;;
74650;SDS011;63169;46.042;14.592;2023-12-07T04:42:45;20.27;;;13.05;;
74650;SDS011;63169;46.042;14.592;2023-12-07T04:45:11;21.88;;;8.75;;
74650;SDS011;63169;46.042;14.592;2023-12-07T04:47:36;22.25;;;11.65;;
74650;SDS011;63169;46.042;14.592;2023-12-07T04:50:02;21.77;;;12.02;;
74650;SDS011;63169;46.042;14.592;2023-12-07T04:52:27;21.23;;;10.77;;
74650;SDS011;63169;46.042;14.592;2023-12-07T04:54:53;16.95;;;10.10;;
74650;SDS011;63169;46.042;14.592;2023-12-07T04:57:18;18.27;;;11.25;;
74650;SDS011;63169;46.042;14.592;2023-12-07T04:59:44;18.88;;;7.18;;
74650;SDS011;63169;46.042;14.592;2023-12-07T05:02:14;18.80;;;8.55;;
74650;SDS011;63169;46.042;14.592;2023-12-07T05:04:43;18.20;;;10.60;;
74650;SDS011;63169;46.042;14.592;2023-12-07T05:07:11;11.50;;;7.80;;
74650;SDS011;63169;46.042;14.592;2023-12-07T05:09:36;18.13;;;11.43;;
74650;SDS011;63169;46.042;14.592;2023-12-07T05:12:03;19.23;;;8.52;;
74650;SDS011;63169;46.042;14.592;2023-12-07T05:14:30;19.73;;;12.20;;
74650;SDS011;63169;46.042;14.592;2023-12-07T05:16:56;19.58;;;7.50;;
74650;SDS011;63169;46.042;14.592;2023-12-07T05:19:22;21.67;;;9.45;;
74650;SDS011;63169;46.042;14.592;2023-12-07T05:21:48;17.45;;;9.40;;
74650;SDS011;63169;46.042;14.592;2023-12-07T05:24:13;23.20;;;11.23;;
74650;SDS011;63169;46.042;14.592;2023-12-07T05:26:42;22.73;;;9.77;;
74650;SDS011;63169;46.042;14.592;2023-12-07T05:29:08;16.95;;;9.00;;
74650;SDS011;63169;46.042;14.592;2023-12-07T05:31:33;20.75;;;9.77;;
74650;SDS011;63169;46.042;14.592;2023-12-07T05:34:00;22.38;;;10.50;;
74650;SDS011;63169;46.042;14.592;2023-12-07T05:36:26;23.98;;;9.77;;
74650;SDS011;63169;46.042;14.592;2023-12-07T05:38:51;18.85;;;8.32;;
74650;SDS011;63169;46.042;14.592;2023-12-07T05:41:17;23.67;;;15.02;;
74650;SDS011;63169;46.042;14.592;2023-12-07T05:43:42;21.27;;;9.70;;
74650;SDS011;63169;46.042;14.592;2023-12-07T05:46:08;21.20;;;10.07;;
74650;SDS011;63169;46.042;14.592;2023-12-07T05:48:33;23.30;;;11.85;;
74650;SDS011;63169;46.042;14.592;2023-12-07T05:51:01;24.90;;;14.27;;
74650;SDS011;63169;46.042;14.592;2023-12-07T05:53:27;23.90;;;10.82;;
74650;SDS011;63169;46.042;14.592;2023-12-07T05:55:52;28.55;;;11.20;;
74650;SDS011;63169;46.042;14.592;2023-12-07T05:58:19;23.48;;;9.88;;
74650;SDS011;63169;46.042;14.592;2023-12-07T06:00:44;25.13;;;13.52;;
74650;SDS011;63169;46.042;14.592;2023-12-07T06:03:12;29.58;;;14.88;;
74650;SDS011;63169;46.042;14.592;2023-12-07T06:05:38;19.45;;;11.75;;
74650;SDS011;63169;46.042;14.592;2023-12-07T06:08:03;25.08;;;9.18;;
74650;SDS011;63169;46.042;14.592;2023-12-07T06:10:29;30.65;;;12.20;;
74650;SDS011;63169;46.042;14.592;2023-12-07T06:12:55;24.48;;;13.98;;
74650;SDS011;63169;46.042;14.592;2023-12-07T06:15:21;23.10;;;11.55;;
74650;SDS011;63169;46.042;14.592;2023-12-07T06:17:47;28.58;;;10.38;;
74650;SDS011;63169;46.042;14.592;2023-12-07T06:20:13;27.80;;;14.40;;
74650;SDS011;63169;46.042;14.592;2023-12-07T06:22:38;20.42;;;14.85;;
74650;SDS011;63169;46.042;14.592;2023-12-07T06:25:04;21.95;;;10.10;;
74650;SDS011;63169;46.042;14.592;2023-12-07T06:27:30;26.00;;;10.05;;
74650;SDS011;63169;46.042;14.592;2023-12-07T06:29:55;23.30;;;13.60;;
74650;SDS011;63169;46.042;14.592;2023-12-07T06:32:21;26.08;;;10.93;;
74650;SDS011;63169;46.042;14.592;2023-12-07T06:34:47;24.70;;;13.60;;
74650;SDS011;63169;46.042;14.592;2023-12-07T06:37:12;20.80;;;13.40;;
74650;SDS011;63169;46.042;14.592;2023-12-07T06:39:38;21.00;;;10.73;;
74650;SDS011;63169;46.042;14.592;2023-12-07T06:42:03;17.20;;;8.30;;
74650;SDS011;63169;46.042;14.592;2023-12-07T06:44:29;20.15;;;12.20;;
74650;SDS011;63169;46.042;14.592;2023-12-07T06:46:54;18.85;;;11.43;;
74650;SDS011;63169;46.042;14.592;2023-12-07T06:49:20;23.63;;;11.93;;
74650;SDS011;63169;46.042;14.592;2023-12-07T06:51:45;18.08;;;9.27;;
74650;SDS011;63169;46.042;14.592;2023-12-07T06:54:11;20.20;;;11.18;;
74650;SDS011;63169;46.042;14.592;2023-12-07T06:56:36;22.48;;;9.98;;
74650;SDS011;63169;46.042;14.592;2023-12-07T06:59:02;18.90;;;8.32;;
74650;SDS011;63169;46.042;14.592;2023-12-07T07:01:27;21.67;;;8.43;;
74650;SDS011;63169;46.042;14.592;2023-12-07T07:03:53;17.48;;;7.35;;
74650;SDS011;63169;46.042;14.592;2023-12-07T07:06:18;25.75;;;14.10;;
74650;SDS011;63169;46.042;14.592;2023-12-07T07:08:44;18.73;;;7.68;;
74650;SDS011;63169;46.042;14.592;2023-12-07T07:11:11;22.58;;;10.32;;
74650;SDS011;63169;46.042;14.592;2023-12-07T07:13:38;21.73;;;8.80;;
74650;SDS011;63169;46.042;14.592;2023-12-07T07:16:03;21.05;;;9.40;;
74650;SDS011;63169;46.042;14.592;2023-12-07T07:18:29;22.00;;;9.27;;
74650;SDS011;63169;46.042;14.592;2023-12-07T07:20:55;20.15;;;8.57;;
74650;SDS011;63169;46.042;14.592;2023-12-07T07:23:20;24.23;;;14.38;;
74650;SDS011;63169;46.042;14.592;2023-12-07T07:25:45;23.67;;;10.75;;
74650;SDS011;63169;46.042;14.592;2023-12-07T07:28:11;24.13;;;9.73;;
74650;SDS011;63169;46.042;14.592;2023-12-07T07:30:36;23.30;;;8.20;;
74650;SDS011;63169;46.042;14.592;2023-12-07T07:33:02;26.77;;;10.38;;
74650;SDS011;63169;46.042;14.592;2023-12-07T07:35:27;21.52;;;9.65;;
74650;SDS011;63169;46.042;14.592;2023-12-07T07:37:54;22.40;;;11.05;;
74650;SDS011;63169;46.042;14.592;2023-12-07T07:40:19;22.73;;;9.60;;
74650;SDS011;63169;46.042;14.592;2023-12-07T07:42:45;22.83;;;9.63;;
74650;SDS011;63169;46.042;14.592;2023-12-07T07:45:10;26.63;;;12.38;;
74650;SDS011;63169;46.042;14.592;2023-12-07T07:47:36;37.05;;;21.30;;
74650;SDS011;63169;46.042;14.592;2023-12-07T07:50:01;25.20;;;9.27;;
74650;SDS011;63169;46.042;14.592;2023-12-07T07:52:34;26.67;;;15.38;;
74650;SDS011;63169;46.042;14.592;2023-12-07T07:55:01;23.50;;;12.43;;
74650;SDS011;63169;46.042;14.592;2023-12-07T07:57:28;25.30;;;14.18;;
74650;SDS011;63169;46.042;14.592;2023-12-07T07:59:54;25.17;;;10.27;;
74650;SDS011;63169;46.042;14.592;2023-12-07T08:02:20;22.70;;;9.23;;
74650;SDS011;63169;46.042;14.592;2023-12-07T08:04:47;18.70;;;8.35;;
74650;SDS011;63169;46.042;14.592;2023-12-07T08:07:12;17.95;;;8.30;;
74650;SDS011;63169;46.042;14.592;2023-12-07T08:09:37;18.27;;;8.52;;
74650;SDS011;63169;46.042;14.592;2023-12-07T08:12:03;24.80;;;9.70;;
74650;SDS011;63169;46.042;14.592;2023-12-07T08:14:30;18.55;;;9.52;;
74650;SDS011;63169;46.042;14.592;2023-12-07T08:16:55;23.35;;;12.13;;
74650;SDS011;63169;46.042;14.592;2023-12-07T08:19:21;22.35;;;13.57;;
74650;SDS011;63169;46.042;14.592;2023-12-07T08:21:46;21.30;;;7.47;;
74650;SDS011;63169;46.042;14.592;2023-12-07T08:24:12;20.92;;;9.85;;
74650;SDS011;63169;46.042;14.592;2023-12-07T08:26:38;23.75;;;11.27;;
74650;SDS011;63169;46.042;14.592;2023-12-07T08:29:04;22.35;;;8.60;;
74650;SDS011;63169;46.042;14.592;2023-12-07T08:31:31;22.48;;;9.27;;
74650;SDS011;63169;46.042;14.592;2023-12-07T08:33:57;23.73;;;12.13;;
74650;SDS011;63169;46.042;14.592;2023-12-07T08:36:22;26.35;;;16.55;;
74650;SDS011;63169;46.042;14.592;2023-12-07T08:38:48;22.60;;;9.55;;
74650;SDS011;63169;46.042;14.592;2023-12-07T08:41:13;20.42;;;9.27;;
74650;SDS011;63169;46.042;14.592;2023-12-07T08:43:39;21.60;;;8.88;;
74650;SDS011;63169;46.042;14.592;2023-12-07T08:46:04;20.20;;;8.98;;
74650;SDS011;63169;46.042;14.592;2023-12-07T08:48:32;23.95;;;10.07;;
74650;SDS011;63169;46.042;14.592;2023-12-07T08:50:58;28.50;;;10.10;;
74650;SDS011;63169;46.042;14.592;2023-12-07T08:53:24;22.15;;;10.38;;
74650;SDS011;63169;46.042;14.592;2023-12-07T08:55:50;24.67;;;11.35;;
74650;SDS011;63169;46.042;14.592;2023-12-07T08:58:16;29.70;;;15.20;;
74650;SDS011;63169;46.042;14.592;2023-12-07T09:00:41;24.05;;;9.70;;
74650;SDS011;63169;46.042;14.592;2023-12-07T09:03:07;27.35;;;15.00;;
74650;SDS011;63169;46.042;14.592;2023-12-07T09:05:32;24.63;;;10.75;;
74650;SDS011;63169;46.042;14.592;2023-12-07T09:08:00;35.55;;;12.65;;
74650;SDS011;63169;46.042;14.592;2023-12-07T09:10:26;26.13;;;10.65;;
74650;SDS011;63169;46.042;14.592;2023-12-07T09:12:51;22.00;;;13.20;;
74650;SDS011;63169;46.042;14.592;2023-12-07T09:15:17;28.77;;;15.98;;
74650;SDS011;63169;46.042;14.592;2023-12-07T09:17:42;23.88;;;15.00;;
74650;SDS011;63169;46.042;14.592;2023-12-07T09:20:08;28.25;;;16.00;;
74650;SDS011;63169;46.042;14.592;2023-12-07T09:22:46;31.20;;;18.58;;
74650;SDS011;63169;46.042;14.592;2023-12-07T09:25:13;23.58;;;14.35;;
74650;SDS011;63169;46.042;14.592;2023-12-07T09:27:39;24.05;;;10.93;;
74650;SDS011;63169;46.042;14.592;2023-12-07T09:30:05;24.25;;;10.82;;
74650;SDS011;63169;46.042;14.592;2023-12-07T09:32:32;34.13;;;10.57;;
74650;SDS011;63169;46.042;14.592;2023-12-07T09:35:05;27.55;;;15.50;;
74650;SDS011;63169;46.042;14.592;2023-12-07T09:37:44;31.88;;;10.93;;
74650;SDS011;63169;46.042;14.592;2023-12-07T09:40:14;22.90;;;9.18;;
74650;SDS011;63169;46.042;14.592;2023-12-07T09:42:43;27.50;;;10.77;;
74650;SDS011;63169;46.042;14.592;2023-12-07T09:45:09;24.25;;;11.30;;
74650;SDS011;63169;46.042;14.592;2023-12-07T09:47:35;27.77;;;15.38;;
74650;SDS011;63169;46.042;14.592;2023-12-07T09:50:02;25.85;;;11.27;;
74650;SDS011;63169;46.042;14.592;2023-12-07T09:52:27;26.00;;;10.32;;
74650;SDS011;63169;46.042;14.592;2023-12-07T09:54:53;29.10;;;14.63;;
74650;SDS011;63169;46.042;14.592;2023-12-07T09:59:46;25.70;;;11.10;;
74650;SDS011;63169;46.042;14.592;2023-12-07T10:02:13;26.13;;;11.25;;
74650;SDS011;63169;46.042;14.592;2023-12-07T10:04:39;25.08;;;14.90;;
74650;SDS011;63169;46.042;14.592;2023-12-07T10:07:05;27.25;;;14.48;;
74650;SDS011;63169;46.042;14.592;2023-12-07T10:09:34;24.65;;;12.48;;
74650;SDS011;63169;46.042;14.592;2023-12-07T10:12:03;25.52;;;10.10;;
74650;SDS011;63169;46.042;14.592;2023-12-07T10:14:30;30.67;;;12.88;;
74650;SDS011;63169;46.042;14.592;2023-12-07T10:16:55;29.23;;;11.40;;
74650;SDS011;63169;46.042;14.592;2023-12-07T10:19:22;33.67;;;18.83;;
74650;SDS011;63169;46.042;14.592;2023-12-07T10:21:48;25.92;;;10.98;;
74650;SDS011;63169;46.042;14.592;2023-12-07T10:24:16;31.80;;;14.20;;
74650;SDS011;63169;46.042;14.592;2023-12-07T10:29:08;25.33;;;10.75;;
74650;SDS011;63169;46.042;14.592;2023-12-07T10:31:34;29.95;;;12.45;;
74650;SDS011;63169;46.042;14.592;2023-12-07T10:33:59;31.35;;;15.20;;
74650;SDS011;63169;46.042;14.592;2023-12-07T10:36:25;27.58;;;11.18;;
74650;SDS011;63169;46.042;14.592;2023-12-07T10:38:52;27.30;;;11.23;;
74650;SDS011;63169;46.042;14.592;2023-12-07T10:41:19;25.98;;;12.35;;
74650;SDS011;63169;46.042;14.592;2023-12-07T10:43:50;31.23;;;13.00;;
74650;SDS011;63169;46.042;14.592;2023-12-07T10:46:18;30.27;;;11.43;;
74650;SDS011;63169;46.042;14.592;2023-12-07T10:48:45;26.42;;;13.40;;
74650;SDS011;63169;46.042;14.592;2023-12-07T10:51:17;28.80;;;15.45;;
74650;SDS011;63169;46.042;14.592;2023-12-07T10:54:05;26.00;;;11.07;;
74650;SDS011;63169;46.042;14.592;2023-12-07T10:56:42;29.27;;;10.25;;
74650;SDS011;63169;46.042;14.592;2023-12-07T10:59:09;30.30;;;11.60;;
74650;SDS011;63169;46.042;14.592;2023-12-07T11:01:38;30.67;;;13.30;;
74650;SDS011;63169;46.042;14.592;2023-12-07T11:04:05;29.70;;;13.93;;
74650;SDS011;63169;46.042;14.592;2023-12-07T11:06:31;28.65;;;14.48;;
74650;SDS011;63169;46.042;14.592;2023-12-07T11:09:01;23.98;;;10.45;;
74650;SDS011;63169;46.042;14.592;2023-12-07T11:11:31;29.27;;;11.32;;
74650;SDS011;63169;46.042;14.592;2023-12-07T11:14:02;33.83;;;13.80;;
74650;SDS011;63169;46.042;14.592;2023-12-07T11:16:32;36.08;;;16.02;;
74650;SDS011;63169;46.042;14.592;2023-12-07T11:19:01;32.28;;;11.68;;
74650;SDS011;63169;46.042;14.592;2023-12-07T11:21:28;25.48;;;12.20;;
74650;SDS011;63169;46.042;14.592;2023-12-07T11:23:53;24.77;;;11.57;;
74650;SDS011;63169;46.042;14.592;2023-12-07T11:26:20;26.33;;;10.65;;
74650;SDS011;63169;46.042;14.592;2023-12-07T11:28:49;26.48;;;11.07;;
74650;SDS011;63169;46.042;14.592;2023-12-07T11:31:14;27.25;;;10.05;;
74650;SDS011;63169;46.042;14.592;2023-12-07T11:33:41;27.00;;;10.38;;
74650;SDS011;63169;46.042;14.592;2023-12-07T11:36:10;24.20;;;12.10;;
74650;SDS011;63169;46.042;14.592;2023-12-07T11:38:37;28.45;;;14.77;;
74650;SDS011;63169;46.042;14.592;2023-12-07T11:41:03;29.60;;;12.45;;
74650;SDS011;63169;46.042;14.592;2023-12-07T11:45:58;23.75;;;11.85;;
74650;SDS011;63169;46.042;14.592;2023-12-07T11:48:24;28.75;;;10.05;;
74650;SDS011;63169;46.042;14.592;2023-12-07T11:50:53;26.80;;;9.90;;
74650;SDS011;63169;46.042;14.592;2023-12-07T11:53:24;23.67;;;11.23;;
74650;SDS011;63169;46.042;14.592;2023-12-07T11:55:50;23.65;;;9.45;;
74650;SDS011;63169;46.042;14.592;2023-12-07T11:58:16;23.38;;;9.02;;
74650;SDS011;63169;46.042;14.592;2023-12-07T12:00:42;25.85;;;9.82;;
74650;SDS011;63169;46.042;14.592;2023-12-07T12:03:09;22.10;;;10.38;;
74650;SDS011;63169;46.042;14.592;2023-12-07T12:05:36;24.83;;;12.68;;
74650;SDS011;63169;46.042;14.592;2023-12-07T12:08:04;20.77;;;9.60;;
74650;SDS011;63169;46.042;14.592;2023-12-07T12:10:30;28.27;;;10.45;;
74650;SDS011;63169;46.042;14.592;2023-12-07T12:12:55;27.90;;;13.30;;
74650;SDS011;63169;46.042;14.592;2023-12-07T12:15:20;23.70;;;11.00;;
74650;SDS011;63169;46.042;14.592;2023-12-07T12:17:46;24.50;;;9.48;;
74650;SDS011;63169;46.042;14.592;2023-12-07T12:20:13;27.58;;;9.80;;
74650;SDS011;63169;46.042;14.592;2023-12-07T12:22:42;21.00;;;11.15;;
74650;SDS011;63169;46.042;14.592;2023-12-07T12:25:08;31.23;;;9.88;;
74650;SDS011;63169;46.042;14.592;2023-12-07T12:27:34;32.17;;;13.00;;
74650;SDS011;63169;46.042;14.592;2023-12-07T12:30:00;24.27;;;10.80;;
74650;SDS011;63169;46.042;14.592;2023-12-07T12:32:26;23.88;;;10.65;;
74650;SDS011;63169;46.042;14.592;2023-12-07T12:34:51;22.63;;;13.18;;
74650;SDS011;63169;46.042;14.592;2023-12-07T12:37:17;24.05;;;11.07;;
74650;SDS011;63169;46.042;14.592;2023-12-07T12:39:42;27.00;;;14.25;;
74650;SDS011;63169;46.042;14.592;2023-12-07T12:42:08;34.08;;;12.23;;
74650;SDS011;63169;46.042;14.592;2023-12-07T12:44:36;28.40;;;14.13;;
74650;SDS011;63169;46.042;14.592;2023-12-07T12:47:06;30.27;;;13.70;;
74650;SDS011;63169;46.042;14.592;2023-12-07T12:49:39;25.67;;;9.88;;
74650;SDS011;63169;46.042;14.592;2023-12-07T12:52:04;23.83;;;13.85;;
74650;SDS011;63169;46.042;14.592;2023-12-07T12:54:32;31.98;;;10.73;;
74650;SDS011;63169;46.042;14.592;2023-12-07T12:56:57;27.00;;;13.27;;
74650;SDS011;63169;46.042;14.592;2023-12-07T12:59:23;30.75;;;13.98;;
74650;SDS011;63169;46.042;14.592;2023-12-07T13:01:50;26.27;;;10.55;;
74650;SDS011;63169;46.042;14.592;2023-12-07T13:04:15;30.40;;;11.52;;
74650;SDS011;63169;46.042;14.592;2023-12-07T13:06:41;25.05;;;8.50;;
74650;SDS011;63169;46.042;14.592;2023-12-07T13:09:06;22.25;;;11.68;;
74650;SDS011;63169;46.042;14.592;2023-12-07T13:11:32;28.73;;;14.23;;
74650;SDS011;63169;46.042;14.592;2023-12-07T13:13:58;22.85;;;9.60;;
74650;SDS011;63169;46.042;14.592;2023-12-07T13:16:24;26.67;;;14.45;;
74650;SDS011;63169;46.042;14.592;2023-12-07T13:18:49;26.60;;;12.93;;
74650;SDS011;63169;46.042;14.592;2023-12-07T13:21:15;24.52;;;9.35;;
74650;SDS011;63169;46.042;14.592;2023-12-07T13:23:40;22.67;;;10.07;;
74650;SDS011;63169;46.042;14.592;2023-12-07T13:26:06;21.42;;;9.15;;
74650;SDS011;63169;46.042;14.592;2023-12-07T13:28:32;27.60;;;14.60;;
74650;SDS011;63169;46.042;14.592;2023-12-07T13:30:58;23.23;;;12.60;;
74650;SDS011;63169;46.042;14.592;2023-12-07T13:33:24;23.65;;;10.07;;
74650;SDS011;63169;46.042;14.592;2023-12-07T13:35:50;23.88;;;12.40;;
74650;SDS011;63169;46.042;14.592;2023-12-07T13:38:17;24.42;;;9.02;;
74650;SDS011;63169;46.042;14.592;2023-12-07T13:40:45;23.85;;;8.20;;
74650;SDS011;63169;46.042;14.592;2023-12-07T13:45:37;19.13;;;8.50;;
74650;SDS011;63169;46.042;14.592;2023-12-07T13:48:03;26.88;;;12.68;;
74650;SDS011;63169;46.042;14.592;2023-12-07T13:50:28;25.00;;;11.60;;
74650;SDS011;63169;46.042;14.592;2023-12-07T13:52:54;20.92;;;9.25;;
74650;SDS011;63169;46.042;14.592;2023-12-07T13:55:19;22.60;;;9.25;;
74650;SDS011;63169;46.042;14.592;2023-12-07T13:57:45;25.27;;;12.50;;
74650;SDS011;63169;46.042;14.592;2023-12-07T14:00:10;30.15;;;17.23;;
74650;SDS011;63169;46.042;14.592;2023-12-07T14:02:38;24.92;;;13.38;;
74650;SDS011;63169;46.042;14.592;2023-12-07T14:05:04;24.70;;;12.98;;
74650;SDS011;63169;46.042;14.592;2023-12-07T14:07:30;26.00;;;13.60;;
74650;SDS011;63169;46.042;14.592;2023-12-07T14:09:55;23.80;;;12.77;;
74650;SDS011;63169;46.042;14.592;2023-12-07T14:12:21;21.02;;;11.68;;
74650;SDS011;63169;46.042;14.592;2023-12-07T14:14:47;17.98;;;10.45;;
74650;SDS011;63169;46.042;14.592;2023-12-07T14:17:13;23.58;;;11.80;;
74650;SDS011;63169;46.042;14.592;2023-12-07T14:19:40;23.92;;;12.50;;
74650;SDS011;63169;46.042;14.592;2023-12-07T14:22:06;24.35;;;12.60;;
74650;SDS011;63169;46.042;14.592;2023-12-07T14:24:34;23.25;;;10.93;;